createdAt,value
2018-10-06T00:00:45.921Z,100277.11
2018-10-06T00:05:43.397Z,100277.22
2018-10-06T00:10:40.878Z,100283.22
2018-10-06T00:15:38.376Z,100275.63
2018-10-06T00:20:35.861Z,100265.13
2018-10-06T00:25:33.346Z,100258.35
2018-10-06T00:30:30.850Z,100256.00
2018-10-06T00:35:28.321Z,100258.25
2018-10-06T00:40:25.790Z,100252.14
2018-10-06T00:45:23.295Z,100242.25
2018-10-06T00:50:21.934Z,100233.86
2018-10-06T00:55:19.428Z,100237.17
2018-10-06T01:00:16.896Z,100237.30
2018-10-06T01:05:14.350Z,100246.21
2018-10-06T01:10:11.833Z,100243.36
2018-10-06T01:15:09.348Z,100241.53
2018-10-06T01:20:09.602Z,100238.02
2018-10-06T01:25:07.127Z,100224.44
2018-10-06T01:30:04.625Z,100227.44
2018-10-06T01:35:02.120Z,100223.95
2018-10-06T01:39:59.610Z,100222.22
2018-10-06T01:44:57.081Z,100214.17
2018-10-06T01:49:55.690Z,100209.89
2018-10-06T01:54:53.229Z,100208.14
2018-10-06T01:59:50.690Z,100195.58
2018-10-06T02:04:48.166Z,100198.73
2018-10-06T02:09:45.733Z,100196.58
2018-10-06T02:14:43.366Z,100191.65
2018-10-06T02:19:51.318Z,100183.88
2018-10-06T02:24:49.301Z,100182.78
2018-10-06T02:29:46.758Z,100174.45
2018-10-06T02:34:44.257Z,100177.75
2018-10-06T02:39:41.725Z,100176.16
2018-10-06T02:44:39.215Z,100181.13
2018-10-06T02:54:46.189Z,100180.34
2018-10-06T02:59:43.658Z,100177.67
2018-10-06T03:04:41.118Z,100178.00
2018-10-06T03:09:38.672Z,100171.87
2018-10-06T03:14:36.135Z,100178.02
2018-10-06T03:19:38.312Z,100168.68
2018-10-06T03:24:35.823Z,100172.80
2018-10-06T03:29:33.294Z,100168.69
2018-10-06T03:34:30.749Z,100156.98
2018-10-06T03:39:28.222Z,100149.74
2018-10-06T03:44:25.658Z,100149.47
2018-10-06T03:49:32.566Z,100148.75
2018-10-06T03:54:30.167Z,100150.58
2018-10-06T03:59:27.625Z,100136.06
2018-10-06T04:04:25.168Z,100140.39
2018-10-06T04:09:23.258Z,100141.22
2018-10-06T04:14:20.733Z,100137.98
2018-10-06T04:19:26.124Z,100122.36
2018-10-06T04:24:23.689Z,100119.15
2018-10-06T04:29:21.210Z,100122.56
2018-10-06T04:34:18.702Z,100110.22
2018-10-06T04:39:16.189Z,100105.75
2018-10-06T04:44:13.658Z,100086.41
2018-10-06T04:49:13.794Z,100076.02
2018-10-06T04:54:11.284Z,100085.84
2018-10-06T04:59:08.773Z,100082.78
2018-10-06T05:04:06.327Z,100087.72
2018-10-06T05:09:04.856Z,100081.04
2018-10-06T05:14:02.370Z,100075.14
2018-10-06T05:19:00.011Z,100078.59
2018-10-06T05:23:57.527Z,100079.50
2018-10-06T05:28:55.014Z,100070.64
2018-10-06T05:33:52.633Z,100067.53
2018-10-06T05:38:50.195Z,100081.91
2018-10-06T05:43:47.782Z,100074.46
2018-10-06T05:48:45.309Z,100078.35
2018-10-06T05:53:42.937Z,100077.16
2018-10-06T05:58:40.445Z,100078.39
2018-10-06T06:03:37.959Z,100079.06
2018-10-06T06:08:35.575Z,100080.89
2018-10-06T06:13:33.091Z,100076.56
2018-10-06T06:18:30.593Z,100069.25
2018-10-06T06:23:28.082Z,100068.19
2018-10-06T06:28:25.664Z,100065.73
2018-10-06T06:33:23.146Z,100066.56
2018-10-06T06:38:20.690Z,100058.52
2018-10-06T06:43:18.232Z,100050.39
2018-10-06T06:48:15.738Z,100054.70
2018-10-06T06:53:13.253Z,100052.17
2018-10-06T06:58:10.847Z,100053.30
2018-10-06T07:03:08.373Z,100056.01
2018-10-06T07:08:06.023Z,100057.27
2018-10-06T07:13:03.542Z,100052.71
2018-10-06T07:18:01.147Z,100034.36
2018-10-06T07:22:58.630Z,100036.83
2018-10-06T07:27:56.134Z,100034.97
2018-10-06T07:32:53.852Z,100024.63
2018-10-06T07:37:51.326Z,100016.48
2018-10-06T07:42:48.822Z,100013.34
2018-10-06T07:47:46.349Z,100010.60
2018-10-06T07:52:43.869Z,100006.13
2018-10-06T07:57:41.350Z,100001.94
2018-10-06T08:02:38.866Z,99995.27
2018-10-06T08:07:36.374Z,99994.48
2018-10-06T08:12:33.877Z,99991.08
2018-10-06T08:17:31.364Z,99985.17
2018-10-06T08:22:28.924Z,99982.17
2018-10-06T08:27:26.451Z,99985.41
2018-10-06T08:32:23.980Z,99977.33
2018-10-06T08:37:21.505Z,99979.80
2018-10-06T08:42:19.011Z,99979.47
2018-10-06T08:47:16.629Z,99975.84
2018-10-06T08:52:14.123Z,99965.00
2018-10-06T08:57:11.733Z,99959.70
2018-10-06T09:02:09.250Z,99962.97
2018-10-06T09:07:06.807Z,99948.04
2018-10-06T09:12:04.350Z,99954.14
2018-10-06T09:17:01.890Z,99945.34
2018-10-06T09:21:59.401Z,99935.17
2018-10-06T09:26:56.911Z,99940.67
2018-10-06T09:31:54.442Z,99931.52
2018-10-06T09:36:52.037Z,99925.77
2018-10-06T09:41:49.641Z,99916.86
2018-10-06T09:46:47.145Z,99914.83
2018-10-06T09:51:44.684Z,99908.42
2018-10-06T09:56:42.342Z,99896.82
2018-10-06T10:01:45.655Z,99896.70
2018-10-06T10:06:43.208Z,99894.80
2018-10-06T10:11:40.720Z,99885.39
2018-10-06T10:16:38.253Z,99877.86
2018-10-06T10:21:35.760Z,99870.90
2018-10-06T10:26:33.274Z,99865.14
2018-10-06T10:31:30.838Z,99859.48
2018-10-06T10:36:28.361Z,99856.75
2018-10-06T10:41:25.846Z,99856.36
2018-10-06T10:46:23.340Z,99842.39
2018-10-06T10:51:20.894Z,99834.02
2018-10-06T10:56:18.402Z,99818.05
2018-10-06T11:01:15.976Z,99811.63
2018-10-06T11:06:14.302Z,99809.09
2018-10-06T11:11:11.998Z,99810.66
2018-10-06T11:16:09.518Z,99805.95
2018-10-06T11:21:07.130Z,99796.72
2018-10-06T11:26:04.685Z,99803.19
2018-10-06T11:31:02.177Z,99787.78
2018-10-06T11:35:59.687Z,99771.05
2018-10-06T11:40:57.194Z,99765.41
2018-10-06T11:45:54.809Z,99753.60
2018-10-06T11:50:52.341Z,99745.73
2018-10-06T11:55:49.895Z,99733.35
2018-10-06T12:00:47.454Z,99729.74
2018-10-06T12:05:44.980Z,99724.52
2018-10-06T12:10:42.501Z,99708.70
2018-10-06T12:15:40.030Z,99697.87
2018-10-06T12:20:37.555Z,99691.41
2018-10-06T12:25:35.089Z,99688.88
2018-10-06T12:30:32.611Z,99680.95
2018-10-06T12:35:30.263Z,99680.69
2018-10-06T12:40:27.632Z,99675.28
2018-10-06T12:45:25.135Z,99673.76
2018-10-06T12:50:23.810Z,99665.02
2018-10-06T12:55:21.338Z,99656.19
2018-10-06T13:00:18.834Z,99657.01
2018-10-06T13:05:16.432Z,99650.16
2018-10-06T13:10:13.953Z,99640.51
2018-10-06T13:15:11.445Z,99641.45
2018-10-06T13:20:10.359Z,99643.78
2018-10-06T13:25:07.893Z,99644.88
2018-10-06T13:30:05.943Z,99644.00
2018-10-06T13:35:03.524Z,99648.98
2018-10-06T13:40:01.066Z,99656.45
2018-10-06T13:44:58.646Z,99644.85
2018-10-06T13:49:57.392Z,99647.45
2018-10-06T13:54:57.487Z,99638.85
2018-10-06T13:59:55.101Z,99630.65
2018-10-06T14:04:54.399Z,99636.88
2018-10-06T14:09:52.075Z,99633.58
2018-10-06T14:14:49.619Z,99640.43
2018-10-06T14:19:52.501Z,99641.16
2018-10-06T14:24:51.144Z,99639.70
2018-10-06T14:29:50.872Z,99633.95
2018-10-06T14:34:48.648Z,99640.07
2018-10-06T14:39:46.488Z,99634.86
2018-10-06T14:44:44.051Z,99636.09
2018-10-06T14:49:47.839Z,99637.82
2018-10-06T14:54:45.487Z,99631.60
2018-10-06T14:59:43.059Z,99628.47
2018-10-06T15:04:40.782Z,99626.38
2018-10-06T15:09:38.504Z,99623.22
2018-10-06T15:14:36.039Z,99624.52
2018-10-06T15:19:35.835Z,99620.30
2018-10-06T15:24:35.031Z,99617.67
2018-10-06T15:29:32.610Z,99612.00
2018-10-06T15:34:30.105Z,99608.83
2018-10-06T15:39:27.605Z,99607.18
2018-10-06T15:44:25.105Z,99600.47
2018-10-06T15:49:30.172Z,99598.78
2018-10-06T15:54:27.835Z,99590.67
2018-10-06T15:59:25.341Z,99597.42
2018-10-06T16:04:22.839Z,99604.86
2018-10-06T16:09:20.342Z,99599.38
2018-10-06T16:14:17.847Z,99598.33
2018-10-06T16:19:20.653Z,99592.09
2018-10-06T16:24:18.223Z,99596.36
2018-10-06T16:29:15.725Z,99604.48
2018-10-06T16:34:13.230Z,99612.55
2018-10-06T16:39:10.780Z,99604.63
2018-10-06T16:44:08.299Z,99613.90
2018-10-06T16:49:08.486Z,99615.55
2018-10-06T16:54:06.010Z,99616.33
2018-10-06T16:59:03.510Z,99610.95
2018-10-06T17:04:02.719Z,99618.66
2018-10-06T17:09:03.495Z,99622.95
2018-10-06T17:14:03.118Z,99631.25
2018-10-06T17:19:04.540Z,99630.23
2018-10-06T17:24:03.547Z,99640.11
2018-10-06T17:29:01.174Z,99627.90
2018-10-06T17:33:59.425Z,99629.71
2018-10-06T17:38:57.075Z,99635.05
2018-10-06T17:43:54.578Z,99634.52
2018-10-06T17:48:52.071Z,99640.59
2018-10-06T17:53:49.672Z,99647.67
2018-10-06T17:58:55.690Z,99646.82
2018-10-06T18:03:53.449Z,99654.70
2018-10-06T18:08:50.942Z,99648.80
2018-10-06T18:13:48.493Z,99647.53
2018-10-06T18:18:45.994Z,99659.83
2018-10-06T18:23:43.481Z,99667.57
2018-10-06T18:28:41.014Z,99661.94
2018-10-06T18:33:42.472Z,99673.09
2018-10-06T18:38:40.025Z,99678.86
2018-10-06T18:43:37.666Z,99682.61
2018-10-06T18:48:35.125Z,99685.30
2018-10-06T18:53:32.583Z,99678.41
2018-10-06T18:58:30.061Z,99679.20
2018-10-06T19:03:27.580Z,99681.14
2018-10-06T19:08:25.084Z,99688.45
2018-10-06T19:13:22.552Z,99692.45
2018-10-06T19:18:20.066Z,99695.87
2018-10-06T19:23:17.610Z,99705.61
2018-10-06T19:28:15.093Z,99703.13
2018-10-06T19:33:12.590Z,99708.74
2018-10-06T19:38:10.130Z,99711.08
2018-10-06T19:43:07.597Z,99712.22
2018-10-06T19:48:05.221Z,99709.67
2018-10-06T19:53:02.702Z,99707.95
2018-10-06T19:58:00.201Z,99711.34
2018-10-06T20:02:57.687Z,99709.86
2018-10-06T20:07:56.739Z,99717.38
2018-10-06T20:12:54.395Z,99708.95
2018-10-06T20:17:51.983Z,99721.41
2018-10-06T20:22:49.785Z,99725.28
2018-10-06T20:27:47.362Z,99727.66
2018-10-06T20:32:44.976Z,99724.79
2018-10-06T20:37:42.636Z,99735.48
2018-10-06T20:42:40.173Z,99739.05
2018-10-06T20:47:38.567Z,99746.05
2018-10-06T20:52:36.184Z,99762.02
2018-10-06T20:57:33.736Z,99758.59
2018-10-06T21:02:31.344Z,99762.77
2018-10-06T21:07:28.975Z,99758.30
2018-10-06T21:12:26.486Z,99768.73
2018-10-06T21:17:24.067Z,99772.55
2018-10-06T21:22:21.616Z,99783.05
2018-10-06T21:27:19.115Z,99786.23
2018-10-06T21:32:16.838Z,99786.08
2018-10-06T21:37:14.371Z,99774.00
2018-10-06T21:42:11.870Z,99777.75
2018-10-06T21:47:09.347Z,99776.59
2018-10-06T21:52:06.837Z,99793.84
2018-10-06T21:57:04.375Z,99808.45
2018-10-06T22:02:04.472Z,99797.57
2018-10-06T22:07:03.807Z,99803.63
2018-10-06T22:12:01.422Z,99788.49
2018-10-06T22:16:59.174Z,99800.37
2018-10-06T22:21:56.675Z,99803.64
2018-10-06T22:26:54.235Z,99802.75
2018-10-06T22:31:52.401Z,99803.23
2018-10-06T22:36:49.877Z,99824.42
2018-10-06T22:41:47.358Z,99841.03
2018-10-06T22:46:44.830Z,99853.61
2018-10-06T22:51:42.318Z,99872.19
2018-10-06T22:56:39.786Z,99864.83
2018-10-06T23:01:37.310Z,99862.63
2018-10-06T23:06:34.827Z,99877.13
2018-10-06T23:11:32.301Z,99882.23
2018-10-06T23:16:29.806Z,99882.41
2018-10-06T23:21:27.357Z,99878.96
2018-10-06T23:26:24.882Z,99878.87
2018-10-06T23:31:22.393Z,99883.31
2018-10-06T23:36:19.936Z,99884.60
2018-10-06T23:41:17.389Z,99888.45
2018-10-06T23:46:14.856Z,99895.20
2018-10-06T23:51:12.409Z,99921.05
2018-10-06T23:56:09.930Z,99910.46
